Terminal Aerodrome Forecast
Issued by NWS

Home | Current Version | Previous Version | Text Only | Print | Product List | Glossary On
Versions: 1 2 3 4 5 6 7 8 9 10 11 12 13 14 15 16 17 18 19 20 21
000
FTUS43 KBIS 011736
TAFMOT
TAF
KMOT 011736Z 0118/0218 VRB05KT P6SM BKN012 OVC025
      TEMPO 0118/0120 SCT012 BKN030
     FM012000 02005KT P6SM SCT025 SCT040
     FM012200 36003KT P6SM VCTS BKN050CB
     FM020300 23005KT P6SM SCT060 SCT080=

USA.gov is the U.S. government's official web portal to all federal, state and local government web resources and services.